Time;durP1;ratioP1;P1;durP2;ratioP2;P2;SDS_P1;SDS_P2;PMS_P1;PMS_P2;Temp;Humidity;BMP_temperature;BMP_pressure;BME280_temperature;BME280_humidity;BME280_pressure;Samples;Min_cycle;Max_cycle;Signal;HPM_P1;HPM_P2
2021/08/05 00:00:12;;;;;;;9.90;4.80;;;;;;;21.43;76.64;100306.37;126315;1099;104144;-78
2021/08/05 00:03:07;;;;;;;6.83;4.27;;;;;;;21.45;76.44;100307.22;125469;1099;104182;-78
2021/08/05 00:05:52;;;;;;;11.10;4.40;;;;;;;21.47;77.09;100306.31;126324;1099;104217;-78
2021/08/05 00:08:31;;;;;;;6.90;4.17;;;;;;;21.46;76.69;100299.20;125292;1099;104389;-78
2021/08/05 00:11:09;;;;;;;8.80;4.77;;;;;;;21.43;76.89;100298.36;125277;1099;104178;-77
2021/08/05 00:13:51;;;;;;;10.87;4.87;;;;;;;21.39;76.49;100293.95;125230;1099;104320;-77
2021/08/05 00:16:28;;;;;;;8.27;4.73;;;;;;;21.37;77.01;100296.64;125314;1099;104210;-78
2021/08/05 00:19:18;;;;;;;9.43;5.20;;;;;;;21.35;77.29;100296.66;125283;1099;104175;-78
2021/08/05 00:21:56;;;;;;;9.23;4.87;;;;;;;21.36;76.29;100292.19;125289;1099;104153;-77
2021/08/05 00:24:29;;;;;;;8.43;4.50;;;;;;;21.39;76.71;100294.83;125250;1099;104197;-78
2021/08/05 00:27:12;;;;;;;10.50;5.05;;;;;;;21.36;77.00;100295.77;125276;1099;104351;-78
2021/08/05 00:29:46;;;;;;;6.97;4.03;;;;;;;21.30;76.33;100290.50;125259;1099;104778;-78
2021/08/05 00:32:21;;;;;;;9.55;5.00;;;;;;;21.22;76.61;100292.35;125283;1099;104580;-77
2021/08/05 00:34:56;;;;;;;11.40;5.10;;;;;;;21.19;77.08;100298.63;125234;1102;110591;-78
2021/08/05 00:37:44;;;;;;;9.17;4.73;;;;;;;21.21;77.06;100290.61;125300;1100;104156;-77
2021/08/05 00:40:33;;;;;;;8.07;4.47;;;;;;;21.17;77.00;100280.86;125324;1099;104660;-77
2021/08/05 00:43:10;;;;;;;11.23;5.17;;;;;;;21.16;76.88;100279.98;125260;1099;104562;-79
2021/08/05 00:45:59;;;;;;;10.53;5.10;;;;;;;21.16;77.27;100285.32;125247;1099;104156;-78
2021/08/05 00:48:56;;;;;;;8.93;5.33;;;;;;;21.11;77.27;100287.13;125290;1099;104287;-77
2021/08/05 00:51:30;;;;;;;10.67;5.50;;;;;;;21.13;76.78;100290.69;125296;1099;104200;-78
2021/08/05 00:54:03;;;;;;;10.93;4.90;;;;;;;21.12;77.03;100283.58;125264;1099;104252;-78
2021/08/05 00:56:39;;;;;;;11.83;5.43;;;;;;;21.14;77.79;100279.09;125290;1099;104306;-78
2021/08/05 00:59:13;;;;;;;9.97;5.10;;;;;;;21.16;77.05;100276.41;125316;1099;104175;-77
2021/08/05 01:01:58;;;;;;;11.47;4.77;;;;;;;21.17;77.49;100280.86;125306;1099;104312;-78
2021/08/05 01:04:44;;;;;;;9.33;5.00;;;;;;;21.17;77.91;100286.20;125227;1099;104162;-79
2021/08/05 01:07:23;;;;;;;11.00;5.37;;;;;;;21.13;76.93;100287.12;126042;1099;104261;-78
2021/08/05 01:10:18;;;;;;;11.33;5.50;;;;;;;21.12;77.34;100282.70;126282;1099;104204;-77
2021/08/05 01:13:00;;;;;;;10.43;4.90;;;;;;;21.16;77.41;100282.66;126321;1099;104156;-78
2021/08/05 01:15:38;;;;;;;11.47;5.13;;;;;;;21.18;77.54;100274.63;126265;1099;111709;-79
2021/08/05 01:18:23;;;;;;;10.90;5.17;;;;;;;21.17;77.64;100281.73;126361;1099;104194;-79
2021/08/05 01:21:05;;;;;;;10.77;5.50;;;;;;;21.19;77.67;100279.05;126335;1099;104201;-78
2021/08/05 01:23:48;;;;;;;9.13;5.47;;;;;;;21.22;77.60;100287.02;126251;1099;104348;-78
2021/08/05 01:26:36;;;;;;;9.17;5.43;;;;;;;21.22;77.80;100284.34;126344;1099;104191;-77
2021/08/05 01:29:54;;;;;;;11.73;5.63;;;;;;;21.20;77.43;100288.83;126283;1099;105129;-77
2021/08/05 01:32:31;;;;;;;9.50;5.30;;;;;;;21.13;77.70;100290.69;126244;1099;104265;-78
2021/08/05 01:35:14;;;;;;;9.00;5.20;;;;;;;21.05;77.24;100295.23;126261;1099;104219;-78
2021/08/05 01:37:53;;;;;;;10.00;5.47;;;;;;;21.01;77.89;100301.49;125254;1102;104586;-78
2021/08/05 01:40:25;;;;;;;14.67;6.20;;;;;;;21.00;77.47;100299.71;125354;1102;104277;-78
2021/08/05 01:43:06;;;;;;;10.40;5.83;;;;;;;21.01;77.16;100312.16;125211;1102;104685;-78
2021/08/05 01:45:46;;;;;;;12.27;5.77;;;;;;;20.98;77.57;100309.52;125242;1100;104251;-78
2021/08/05 01:48:29;;;;;;;11.63;5.23;;;;;;;20.98;77.22;100310.39;125341;1102;104367;-78
2021/08/05 01:51:02;;;;;;;11.03;5.23;;;;;;;20.98;77.58;100302.39;125248;1102;104415;-78
2021/08/05 01:53:42;;;;;;;11.10;5.67;;;;;;;21.00;77.55;100299.71;125226;1102;104146;-77
2021/08/05 01:56:27;;;;;;;11.67;5.60;;;;;;;20.98;77.31;100302.39;125218;1102;104147;-78
2021/08/05 01:58:59;;;;;;;11.45;5.60;;;;;;;21.02;78.34;100300.59;125301;1102;104350;-78
2021/08/05 02:01:38;;;;;;;9.37;5.17;;;;;;;21.04;77.55;100298.79;125303;1102;104709;-78
2021/08/05 02:04:42;;;;;;;10.23;5.23;;;;;;;21.06;77.81;100304.11;125230;1102;104688;-77
2021/08/05 02:07:17;;;;;;;12.47;5.73;;;;;;;21.08;78.38;100304.97;125279;1102;104153;-78
2021/08/05 02:09:59;;;;;;;10.30;5.87;;;;;;;21.09;77.57;100304.08;125319;1099;104255;-78
2021/08/05 02:12:43;;;;;;;9.33;5.40;;;;;;;21.10;77.77;100304.06;125262;1099;104255;-78
2021/08/05 02:15:31;;;;;;;9.77;5.20;;;;;;;21.08;77.07;100308.50;125267;1102;104284;-78
2021/08/05 02:18:16;;;;;;;11.60;5.50;;;;;;;20.99;77.41;100308.63;125299;1102;104790;-78
2021/08/05 02:21:00;;;;;;;11.17;6.03;;;;;;;20.98;77.23;100306.86;125316;1099;101966;-77
2021/08/05 02:23:37;;;;;;;10.77;5.87;;;;;;;20.97;77.66;100315.75;126107;1099;104233;-78
2021/08/05 02:26:10;;;;;;;10.13;6.00;;;;;;;20.97;78.08;100315.75;126311;1099;104216;-79
2021/08/05 02:28:43;;;;;;;12.70;6.10;;;;;;;20.94;77.81;100319.34;126357;1099;104218;-78
2021/08/05 02:31:17;;;;;;;10.68;5.85;;;;;;;20.95;77.74;100323.77;126282;1099;104335;-79
2021/08/05 02:33:47;;;;;;;;;;;;;;;20.94;78.55;100322.02;126408;1099;104242;-77
2021/08/05 02:36:22;;;;;;;12.33;6.57;;;;;;;20.95;78.89;100328.22;126250;1099;104137;-78
2021/08/05 02:39:02;;;;;;;14.67;6.23;;;;;;;20.97;78.94;100327.32;126359;1099;104137;-78
2021/08/05 02:41:35;;;;;;;12.97;6.43;;;;;;;21.01;77.89;100329.03;126347;1099;104140;-78
2021/08/05 02:44:08;;;;;;;10.27;6.17;;;;;;;21.05;78.28;100326.34;126335;1099;104379;-78
2021/08/05 02:47:14;;;;;;;12.87;6.47;;;;;;;21.06;78.10;100339.66;126308;1099;104185;-79
2021/08/05 02:49:56;;;;;;;12.87;6.50;;;;;;;21.08;78.61;100335.19;126247;1099;104204;-78
2021/08/05 02:52:36;;;;;;;;;;;;;;;21.09;79.08;100342.30;126335;1099;104226;-79
2021/08/05 02:55:12;;;;;;;14.10;6.67;;;;;;;21.10;79.18;100346.75;126324;1098;104607;-78
2021/08/05 02:57:52;;;;;;;12.77;6.20;;;;;;;21.16;79.19;100340.44;126263;1099;104146;-78
2021/08/05 03:00:29;;;;;;;11.30;6.27;;;;;;;21.17;78.16;100345.77;126330;1099;104366;-78
2021/08/05 03:03:10;;;;;;;11.13;6.10;;;;;;;21.18;78.87;100338.66;126349;1099;104220;-78
2021/08/05 03:05:45;;;;;;;12.37;6.43;;;;;;;21.19;79.01;100335.08;126355;1099;104149;-79
2021/08/05 03:08:19;;;;;;;12.50;6.47;;;;;;;21.17;78.53;100340.42;126241;1099;119101;-78
2021/08/05 03:10:55;;;;;;;13.10;7.00;;;;;;;21.20;78.80;100347.53;125275;1099;104277;-80
2021/08/05 03:13:37;;;;;;;14.17;6.80;;;;;;;21.23;78.92;100349.29;125321;1099;104322;-78
2021/08/05 03:16:26;;;;;;;11.53;6.13;;;;;;;21.25;79.19;100344.81;125298;1099;104258;-78
2021/08/05 03:19:01;;;;;;;13.10;6.70;;;;;;;21.29;79.22;100341.22;125278;1099;104326;-78
2021/08/05 03:21:36;;;;;;;11.83;6.80;;;;;;;21.30;78.74;100341.20;125296;1099;104228;-78
2021/08/05 03:24:11;;;;;;;17.33;6.70;;;;;;;21.32;78.67;100338.52;125298;1099;104792;-77
2021/08/05 03:26:49;;;;;;;14.47;6.60;;;;;;;21.34;79.49;100342.91;125256;1099;104153;-80
2021/08/05 03:29:21;;;;;;;13.63;7.27;;;;;;;21.37;79.53;100347.34;125730;1099;110151;-78
2021/08/05 03:32:23;;;;;;;13.57;7.27;;;;;;;21.38;79.46;100341.13;126336;1099;104274;-78
2021/08/05 03:35:03;;;;;;;13.57;6.63;;;;;;;21.40;78.98;100331.30;126284;1099;104236;-78
2021/08/05 03:37:37;;;;;;;16.30;7.20;;;;;;;21.42;79.37;100332.16;126243;1099;104297;-78
2021/08/05 03:40:19;;;;;;;14.30;6.75;;;;;;;21.44;79.16;100330.38;126335;1099;104226;-79
2021/08/05 03:42:54;;;;;;;14.85;7.20;;;;;;;21.50;78.98;100332.09;125310;1099;104216;-79
2021/08/05 03:45:25;;;;;;;14.43;6.93;;;;;;;21.51;79.59;100332.08;125366;1099;104197;-78
2021/08/05 03:48:04;;;;;;;16.40;7.60;;;;;;;21.52;79.66;100325.85;125505;1099;104171;-78
2021/08/05 03:50:38;;;;;;;14.80;7.93;;;;;;;21.54;79.29;100328.50;126156;1099;104290;-78
2021/08/05 03:53:23;;;;;;;16.77;7.53;;;;;;;21.60;79.62;100332.86;126223;1098;104156;-78
2021/08/05 03:55:53;;;;;;;14.73;7.90;;;;;;;21.63;79.13;100328.39;126204;1099;104143;-79
2021/08/05 03:58:29;;;;;;;15.33;7.10;;;;;;;21.66;79.40;100325.69;125740;1099;104248;-78
2021/08/05 04:01:11;;;;;;;15.93;7.53;;;;;;;21.67;79.62;100329.22;125237;1099;104265;-77
2021/08/05 04:03:47;;;;;;;15.15;7.70;;;;;;;21.67;79.07;100332.77;125196;1099;104397;-78
2021/08/05 04:06:31;;;;;;;17.77;8.23;;;;;;;21.71;78.98;100331.84;125281;1099;104323;-77
2021/08/05 04:09:14;;;;;;;;;;;;;;;21.75;78.92;100335.34;125249;1102;104191;-77
2021/08/05 04:11:53;;;;;;;21.83;9.17;;;;;;;21.75;79.43;100330.00;125295;1102;104297;-78
2021/08/05 04:17:42;;;;;;;19.20;9.10;;;;;;;21.81;78.83;100329.05;125275;1099;104319;-77
2021/08/05 04:20:21;;;;;;;20.50;8.80;;;;;;;21.83;79.21;100320.12;125227;1102;104309;-79
2021/08/05 04:23:01;;;;;;;16.27;8.23;;;;;;;21.88;79.06;100317.39;125232;1102;104625;-79
2021/08/05 04:25:37;;;;;;;17.73;8.70;;;;;;;21.92;79.23;100323.56;125255;1102;104264;-80
2021/08/05 04:28:15;;;;;;;19.10;9.20;;;;;;;21.97;78.86;100327.05;125176;1102;104324;-79
2021/08/05 04:30:48;;;;;;;18.40;8.80;;;;;;;22.01;79.67;100331.45;124939;1105;107758;-77
2021/08/05 04:33:22;;;;;;;17.13;9.03;;;;;;;22.05;78.99;100333.19;124997;1102;104303;-78
2021/08/05 04:35:54;;;;;;;19.53;8.90;;;;;;;22.08;78.69;100330.47;125016;1102;104281;-78
2021/08/05 04:38:27;;;;;;;20.17;9.00;;;;;;;22.08;78.71;100320.66;124978;1102;104214;-80
2021/08/05 04:40:59;;;;;;;19.13;9.97;;;;;;;22.20;78.90;100324.05;125254;1102;104149;-79
2021/08/05 04:43:34;;;;;;;17.63;9.10;;;;;;;22.28;79.37;100321.25;125278;1102;104389;-79
2021/08/05 04:46:14;;;;;;;21.60;9.50;;;;;;;22.32;79.01;100312.33;125171;1102;104392;-79
2021/08/05 04:48:49;;;;;;;22.87;10.10;;;;;;;22.38;79.01;100306.88;125261;1102;105601;-78
2021/08/05 04:51:33;;;;;;;19.30;9.40;;;;;;;22.43;79.31;100303.21;125187;1102;104156;-78
2021/08/05 04:54:04;;;;;;;22.27;9.10;;;;;;;22.53;79.09;100293.27;125304;1102;104168;-77
2021/08/05 04:56:40;;;;;;;19.57;9.00;;;;;;;22.53;78.04;100289.69;125288;1102;104302;-79
2021/08/05 04:59:38;;;;;;;20.73;9.73;;;;;;;22.55;78.37;100294.12;125379;1102;104222;-78
2021/08/05 05:02:15;;;;;;;20.33;9.67;;;;;;;22.68;78.81;100289.43;126323;1099;104149;-80
2021/08/05 05:04:48;;;;;;;20.47;10.40;;;;;;;22.80;78.92;100293.69;126353;1099;104235;-79
2021/08/05 05:07:27;;;;;;;22.83;9.93;;;;;;;22.94;78.75;100290.77;126266;1099;104252;-79
2021/08/05 05:10:11;;;;;;;22.50;10.80;;;;;;;23.07;78.63;100291.41;126202;1099;104338;-81
2021/08/05 05:12:52;;;;;;;23.57;10.20;;;;;;;23.17;78.31;100286.78;126217;1099;104216;-78
2021/08/05 05:15:22;;;;;;;21.77;9.80;;;;;;;23.31;78.04;100284.70;126288;1098;104165;-77
2021/08/05 05:18:13;;;;;;;19.83;10.13;;;;;;;23.40;77.91;100281.84;126120;1099;104193;-77
2021/08/05 05:21:00;;;;;;;21.40;11.17;;;;;;;23.39;77.78;100293.48;126131;1099;104318;-78
2021/08/05 05:23:40;;;;;;;17.60;9.53;;;;;;;23.28;77.53;100293.70;126189;1099;104193;-78
2021/08/05 05:26:20;;;;;;;16.40;9.90;;;;;;;23.21;77.18;100294.73;126216;1099;104185;-78
2021/08/05 05:29:21;;;;;;;21.33;9.60;;;;;;;23.18;77.50;100294.78;126183;1099;104197;-78
2021/08/05 05:32:14;;;;;;;15.83;8.97;;;;;;;23.17;77.21;100287.69;126168;1098;104283;-79
2021/08/05 05:34:49;;;;;;;16.00;9.97;;;;;;;23.18;77.30;100293.91;126252;1099;104240;-78
2021/08/05 05:37:41;;;;;;;18.10;10.57;;;;;;;23.13;77.18;100286.84;126222;1099;104168;-78
2021/08/05 05:40:31;;;;;;;19.37;11.53;;;;;;;23.17;77.20;100292.14;126172;1099;104237;-79
2021/08/05 05:43:12;;;;;;;20.20;9.77;;;;;;;23.19;76.81;100291.20;126231;1099;104258;-78
2021/08/05 05:45:52;;;;;;;18.80;9.80;;;;;;;23.18;76.93;100297.45;125923;1099;104185;-80
2021/08/05 05:48:41;;;;;;;17.43;9.20;;;;;;;23.13;76.46;100294.00;125854;1099;104204;-79
2021/08/05 05:51:36;;;;;;;16.30;8.00;;;;;;;23.07;76.73;100292.28;125813;1099;104315;-79
2021/08/05 05:54:51;;;;;;;14.70;8.10;;;;;;;23.12;76.46;100293.12;126008;1099;104149;-80
2021/08/05 05:57:41;;;;;;;18.77;8.73;;;;;;;23.21;76.28;100297.40;125530;1099;104219;-82
2021/08/05 06:00:32;;;;;;;14.83;7.90;;;;;;;23.27;76.27;100302.63;126009;1099;104176;-80
2021/08/05 06:03:11;;;;;;;15.27;8.17;;;;;;;23.31;76.37;100296.31;126186;1099;118914;-79
2021/08/05 06:06:15;;;;;;;15.10;8.10;;;;;;;23.35;76.25;100298.94;125934;1099;104414;-82
2021/08/05 06:09:05;;;;;;;17.43;7.37;;;;;;;23.35;76.57;100293.58;126088;1099;104214;-81
2021/08/05 06:11:44;;;;;;;20.33;7.77;;;;;;;23.30;76.23;100286.52;126021;1099;104163;-80
2021/08/05 06:14:32;;;;;;;17.13;8.30;;;;;;;23.37;76.17;100271.20;125952;1099;104162;-81
2021/08/05 06:19:59;;;;;;;16.80;8.37;;;;;;;23.60;75.89;100272.52;125966;1099;104293;-79
2021/08/05 06:22:39;;;;;;;20.40;7.70;;;;;;;23.62;76.08;100268.91;126057;1099;104265;-80
2021/08/05 06:25:18;;;;;;;14.67;7.50;;;;;;;23.68;76.02;100268.77;125829;1099;104172;-80
2021/08/05 06:28:08;;;;;;;12.47;7.17;;;;;;;23.78;75.86;100268.53;126060;1099;104198;-81
2021/08/05 06:30:48;;;;;;;16.93;7.67;;;;;;;23.88;75.94;100266.59;126083;1099;104197;-79
2021/08/05 06:33:32;;;;;;;14.43;7.20;;;;;;;23.95;75.60;100258.37;126021;1099;104367;-79
2021/08/05 06:36:43;;;;;;;16.73;7.43;;;;;;;24.04;75.67;100265.30;125128;1102;104357;-80
2021/08/05 06:39:45;;;;;;;13.33;7.87;;;;;;;24.26;75.64;100254.92;125184;1102;104348;-79
2021/08/05 06:42:22;;;;;;;21.07;9.60;;;;;;;24.45;75.38;100257.15;125145;1099;104150;-80
2021/08/05 06:44:57;;;;;;;17.27;8.40;;;;;;;24.60;75.28;100254.11;125132;1099;104152;-81
2021/08/05 06:47:38;;;;;;;15.90;8.80;;;;;;;24.68;75.43;100252.12;125204;1101;104415;-81
2021/08/05 06:50:15;;;;;;;18.03;8.33;;;;;;;24.67;74.53;100253.03;125260;1100;104150;-79
2021/08/05 06:52:56;;;;;;;18.57;9.23;;;;;;;24.69;74.78;100247.63;125200;1102;104361;-80
2021/08/05 06:55:31;;;;;;;18.33;9.20;;;;;;;24.79;74.42;100249.12;125917;1099;104137;-81
2021/08/05 06:58:06;;;;;;;17.97;9.03;;;;;;;24.94;74.58;100245.16;126005;1099;104211;-80
2021/08/05 07:00:42;;;;;;;16.83;8.83;;;;;;;25.00;74.03;100250.35;126027;1099;104284;-81
2021/08/05 07:03:17;;;;;;;16.87;9.40;;;;;;;25.01;73.60;100248.53;125194;1099;104245;-81
2021/08/05 07:05:54;;;;;;;18.73;10.10;;;;;;;25.07;74.03;100238.53;126042;1098;104232;-81
2021/08/05 07:08:30;;;;;;;18.83;10.67;;;;;;;25.18;73.44;100242.69;126186;1099;104175;-80
2021/08/05 07:11:05;;;;;;;18.63;9.93;;;;;;;25.28;73.88;100236.14;126182;1099;104493;-80
2021/08/05 07:13:41;;;;;;;19.03;9.80;;;;;;;25.37;73.53;100240.37;126123;1099;104336;-81
2021/08/05 07:16:15;;;;;;;19.77;10.70;;;;;;;25.41;73.38;100234.87;126058;1099;104284;-81
2021/08/05 07:18:48;;;;;;;17.93;10.27;;;;;;;25.52;73.40;100234.55;126075;1099;104229;-81
2021/08/05 07:21:19;;;;;;;;;;;;;;;25.58;72.45;100237.05;126051;1099;104152;-79
2021/08/05 07:23:56;;;;;;;19.83;11.10;;;;;;;25.64;73.38;100227.93;125306;1099;105027;-79
2021/08/05 07:26:33;;;;;;;21.40;10.83;;;;;;;25.80;73.15;100221.16;125455;1099;104603;-79
2021/08/05 07:29:08;;;;;;;21.73;10.83;;;;;;;25.96;73.07;100223.33;126186;1099;104142;-80
2021/08/05 07:31:40;;;;;;;21.13;11.10;;;;;;;26.08;72.63;100220.27;126019;1099;104146;-80
2021/08/05 07:34:14;;;;;;;18.47;10.03;;;;;;;26.14;72.75;100216.52;126019;1099;104248;-80
2021/08/05 07:36:49;;;;;;;20.40;10.93;;;;;;;26.21;72.20;100215.39;126089;1099;104319;-81
2021/08/05 07:39:26;;;;;;;24.53;11.33;;;;;;;26.26;72.80;100204.48;126208;1097;104174;-82
2021/08/05 07:42:09;;;;;;;20.60;11.53;;;;;;;26.37;72.31;100213.05;126133;1099;104227;-81
2021/08/05 07:44:45;;;;;;;22.40;11.83;;;;;;;26.55;72.63;100216.89;126277;1099;104255;-82
2021/08/05 07:47:22;;;;;;;22.00;11.53;;;;;;;26.63;72.35;100208.55;126114;1099;104166;-82
2021/08/05 07:50:02;;;;;;;19.40;10.93;;;;;;;26.65;72.14;100204.02;126241;1099;104129;-80
2021/08/05 07:52:37;;;;;;;22.00;11.00;;;;;;;26.61;71.79;100199.67;126168;1099;104189;-81
2021/08/05 07:55:17;;;;;;;27.50;10.87;;;;;;;26.60;71.78;100204.18;125390;1099;104249;-79
2021/08/05 08:00:37;;;;;;;19.20;11.23;;;;;;;26.71;71.90;100204.70;126198;1099;104156;-78
2021/08/05 08:03:11;;;;;;;17.87;11.17;;;;;;;26.73;71.39;100194.75;126086;1099;104240;-79
2021/08/05 08:05:46;;;;;;;19.40;11.13;;;;;;;26.70;71.66;100185.92;126014;1099;104153;-79
2021/08/05 08:08:23;;;;;;;19.23;10.93;;;;;;;26.65;71.63;100187.88;126049;1099;104252;-80
2021/08/05 08:10:57;;;;;;;18.80;10.70;;;;;;;26.64;71.41;100184.28;126104;1099;104188;-80
2021/08/05 08:13:32;;;;;;;21.33;11.40;;;;;;;26.68;71.61;100185.97;126063;1099;104223;-79
2021/08/05 08:16:05;;;;;;;21.20;11.83;;;;;;;26.75;71.59;100188.45;126001;1099;104245;-79
2021/08/05 08:18:37;;;;;;;21.13;13.30;;;;;;;26.78;71.33;100186.52;126144;1099;104156;-79
2021/08/05 08:21:13;;;;;;;19.93;11.73;;;;;;;26.76;71.67;100182.14;126226;1099;104214;-79
2021/08/05 08:23:50;;;;;;;20.50;11.67;;;;;;;26.69;71.51;100181.46;126083;1099;104300;-79
2021/08/05 08:26:23;;;;;;;24.60;12.98;;;;;;;26.67;71.54;100183.34;126236;1099;104243;-78
2021/08/05 08:29:00;;;;;;;21.48;11.88;;;;;;;26.75;71.25;100183.93;126196;1099;104143;-79
2021/08/05 08:31:37;;;;;;;20.43;12.07;;;;;;;26.92;71.45;100177.06;126301;1099;104140;-80
2021/08/05 08:34:12;;;;;;;26.40;12.27;;;;;;;27.11;71.29;100178.11;126252;1099;104168;-80
2021/08/05 08:36:48;;;;;;;19.80;11.37;;;;;;;27.26;70.82;100168.58;126158;1099;104293;-79
2021/08/05 08:39:23;;;;;;;21.40;10.88;;;;;;;27.42;70.96;100158.10;126159;1099;104332;-80
2021/08/05 08:41:58;;;;;;;21.63;11.10;;;;;;;27.53;70.47;100154.98;126242;1099;104398;-79
2021/08/05 08:44:34;;;;;;;20.80;11.83;;;;;;;27.66;70.94;100152.66;126083;1099;104152;-79
2021/08/05 08:47:09;;;;;;;20.23;11.93;;;;;;;27.77;70.79;100155.82;126225;1099;104245;-78
2021/08/05 08:49:45;;;;;;;19.33;11.43;;;;;;;27.79;70.22;100154.80;126194;1099;104150;-80
2021/08/05 08:52:27;;;;;;;18.53;10.90;;;;;;;27.79;70.32;100154.80;125316;1099;104179;-81
2021/08/05 08:55:08;;;;;;;19.63;11.43;;;;;;;27.91;69.80;100152.55;125203;1099;104297;-81
2021/08/05 08:57:41;;;;;;;18.80;11.20;;;;;;;27.95;69.92;100148.80;125318;1099;104149;-80
2021/08/05 09:00:16;;;;;;;20.73;11.83;;;;;;;27.92;69.50;100152.45;125239;1102;104479;-80
2021/08/05 09:02:47;;;;;;;;;;;;;;;27.85;69.66;100158.20;125155;1099;104156;-79
2021/08/05 09:05:20;;;;;;;22.40;11.70;;;;;;;27.82;69.59;100143.02;125206;1099;104307;-81
2021/08/05 09:07:59;;;;;;;18.00;11.63;;;;;;;27.89;69.46;100135.54;125267;1099;104252;-80
2021/08/05 09:10:35;;;;;;;25.90;12.40;;;;;;;27.97;69.34;100137.02;125220;1102;104390;-80
2021/08/05 09:13:08;;;;;;;19.50;12.10;;;;;;;27.95;69.29;100132.63;125225;1099;104201;-79
2021/08/05 09:15:45;;;;;;;22.27;12.90;;;;;;;28.04;69.41;100123.28;125233;1099;104201;-82
2021/08/05 09:18:38;;;;;;;19.47;11.60;;;;;;;28.18;69.20;100128.95;125247;1103;104278;-80
2021/08/05 09:21:21;;;;;;;22.43;12.23;;;;;;;28.29;68.78;100133.88;125288;1102;104491;-79
2021/08/05 09:24:04;;;;;;;20.73;12.10;;;;;;;28.38;68.77;100119.98;125308;1099;104319;-81
2021/08/05 09:26:41;;;;;;;18.60;11.50;;;;;;;28.50;68.53;100116.73;125303;1102;104233;-78
2021/08/05 09:29:18;;;;;;;21.23;12.77;;;;;;;28.52;67.88;100103.17;125285;1099;104210;-78
2021/08/05 09:32:01;;;;;;;19.43;11.93;;;;;;;28.55;67.86;100103.04;126111;1099;104248;-79
2021/08/05 09:34:45;;;;;;;20.10;11.35;;;;;;;28.58;67.89;100100.23;126065;1099;104255;-78
2021/08/05 09:37:19;;;;;;;20.20;11.73;;;;;;;28.71;67.64;100100.54;126282;1099;108273;-80
2021/08/05 09:39:55;;;;;;;19.87;12.47;;;;;;;28.82;67.81;100090.11;126145;1099;104150;-78
2021/08/05 09:42:32;;;;;;;21.33;12.90;;;;;;;28.90;67.12;100094.29;126219;1099;104563;-79
2021/08/05 09:45:08;;;;;;;21.23;12.53;;;;;;;28.99;67.29;100091.16;126250;1099;104213;-80
2021/08/05 09:47:47;;;;;;;24.03;13.20;;;;;;;28.98;66.85;100087.55;126281;1099;118112;-77
2021/08/05 09:50:29;;;;;;;21.57;12.30;;;;;;;28.97;66.80;100076.86;126164;1099;104242;-79
2021/08/05 09:53:18;;;;;;;24.97;12.90;;;;;;;28.94;66.71;100077.87;126054;1099;104192;-80
2021/08/05 09:56:07;;;;;;;21.80;12.87;;;;;;;28.99;66.66;100067.72;126133;1098;102772;-79
2021/08/05 09:58:47;;;;;;;18.32;10.93;;;;;;;29.07;66.50;100064.65;126162;1098;104172;-80
2021/08/05 10:01:25;;;;;;;17.53;10.07;;;;;;;29.20;66.25;100057.75;126126;1099;104143;-80
2021/08/05 10:04:21;;;;;;;18.80;10.63;;;;;;;29.20;65.82;100052.34;125321;1099;104165;-79
2021/08/05 10:07:10;;;;;;;22.37;10.87;;;;;;;29.26;65.84;100064.66;125761;1099;104214;-79
2021/08/05 10:10:00;;;;;;;18.07;11.63;;;;;;;29.30;65.47;100043.79;126069;1099;104193;-77
2021/08/05 10:12:46;;;;;;;21.03;11.27;;;;;;;29.29;65.40;100053.70;126145;1099;104210;-77
2021/08/05 10:15:36;;;;;;;18.40;11.57;;;;;;;29.31;65.22;100045.52;126137;1099;104150;-79
2021/08/05 10:18:42;;;;;;;18.40;11.43;;;;;;;29.39;64.70;100033.39;125868;1099;109138;-79
2021/08/05 10:24:31;;;;;;;16.27;9.50;;;;;;;29.74;64.29;100035.25;126007;1099;104236;-78
2021/08/05 10:27:12;;;;;;;20.90;10.27;;;;;;;29.78;64.26;100023.33;126189;1099;104281;-77
2021/08/05 10:30:05;;;;;;;16.77;9.77;;;;;;;29.97;64.35;100025.98;126100;1099;104213;-77
2021/08/05 10:32:47;;;;;;;21.10;10.20;;;;;;;30.03;63.73;100017.55;126016;1099;104172;-79
2021/08/05 10:35:25;;;;;;;18.70;10.30;;;;;;;29.99;63.39;100013.23;126164;1099;104198;-77
2021/08/05 10:38:05;;;;;;;16.93;10.00;;;;;;;30.08;63.05;100010.05;126102;1099;104161;-80
2021/08/05 10:40:38;;;;;;;17.73;10.23;;;;;;;30.04;62.17;100004.88;126128;1099;104146;-81
2021/08/05 10:47:07;;;;;;;20.20;10.67;;;;;;;30.11;62.38;99996.36;125009;1102;104179;-80
2021/08/05 10:57:26;;;;;;;15.93;10.23;;;;;;;30.27;61.80;99988.28;125271;1099;104303;-80
2021/08/05 11:00:23;;;;;;;17.20;10.07;;;;;;;30.23;61.65;99988.52;125296;1099;104954;-81
2021/08/05 11:04:07;;;;;;;14.93;9.30;;;;;;;30.39;60.90;99984.07;125055;1102;107077;-79
2021/08/05 11:07:33;;;;;;;16.30;9.20;;;;;;;30.56;61.18;99969.61;125074;1102;104248;-80
2021/08/05 11:10:33;;;;;;;18.40;10.00;;;;;;;30.58;60.82;99966.81;124891;1102;104203;-78
2021/08/05 11:17:05;;;;;;;16.47;10.07;;;;;;;30.61;60.17;99958.52;124877;1102;105637;-79
2021/08/05 11:20:54;;;;;;;17.20;9.30;;;;;;;30.61;59.61;99953.11;124844;1102;105201;-79
2021/08/05 11:27:21;;;;;;;16.60;9.27;;;;;;;30.83;58.43;99942.78;124920;1103;101788;-80
2021/08/05 11:30:58;;;;;;;20.47;9.50;;;;;;;30.91;57.31;99942.34;124981;1105;104608;-80
2021/08/05 11:34:09;;;;;;;17.17;9.40;;;;;;;31.06;57.46;99932.48;124900;1105;104409;-79
2021/08/05 11:37:19;;;;;;;15.23;9.40;;;;;;;31.13;57.08;99939.27;124848;1105;104491;-78
2021/08/05 11:40:56;;;;;;;14.85;8.25;;;;;;;31.25;57.00;99931.41;124955;1106;104457;-79
2021/08/05 11:43:49;;;;;;;16.67;8.63;;;;;;;31.26;56.24;99916.87;124819;1102;104690;-80
2021/08/05 11:46:34;;;;;;;16.30;8.73;;;;;;;31.38;55.79;99921.55;125232;1102;104463;-78
2021/08/05 11:49:41;;;;;;;18.47;8.87;;;;;;;31.41;55.48;99918.66;125221;1102;104159;-79
2021/08/05 11:53:20;;;;;;;;;;;;;;;;;;;;;
2021/08/05 11:56:22;;;;;;;21.93;12.93;;;;;;;31.40;54.93;99918.75;125214;1102;104299;-78
2021/08/05 11:59:03;;;;;;;22.17;13.17;;;;;;;31.35;54.30;99909.08;125216;1099;104341;-78
2021/08/05 12:01:35;;;;;;;19.60;12.00;;;;;;;31.36;54.49;99907.23;125230;1099;104297;-78
2021/08/05 12:04:21;;;;;;;22.73;11.57;;;;;;;31.35;54.33;99906.38;125012;1102;104354;-77
2021/08/05 12:07:18;;;;;;;18.03;10.37;;;;;;;31.40;54.53;99908.80;125128;1102;104615;-78
2021/08/05 12:10:13;;;;;;;21.57;13.30;;;;;;;31.36;53.67;99902.67;125255;1102;104185;-77
2021/08/05 12:13:32;;;;;;;19.67;10.13;;;;;;;31.21;53.65;99892.75;125166;1102;104155;-78
2021/08/05 12:16:17;;;;;;;19.45;10.20;;;;;;;31.18;53.63;99892.94;124992;1102;104380;-77
2021/08/05 12:19:12;;;;;;;21.33;10.88;;;;;;;31.25;53.78;99890.75;125112;1102;104284;-77
2021/08/05 12:22:03;;;;;;;16.87;9.50;;;;;;;31.38;53.73;99886.31;125143;1102;104501;-77
2021/08/05 12:25:05;;;;;;;18.10;9.87;;;;;;;31.41;53.66;99880.71;125108;1102;104139;-78
2021/08/05 12:28:10;;;;;;;18.67;9.60;;;;;;;31.47;53.61;99874.05;125165;1102;104325;-79
2021/08/05 12:30:47;;;;;;;18.60;9.90;;;;;;;31.45;53.42;99870.58;125446;1099;104312;-78
2021/08/05 12:33:28;;;;;;;19.47;9.90;;;;;;;31.34;53.56;99868.52;126271;1099;104172;-78
2021/08/05 12:36:12;;;;;;;17.50;9.00;;;;;;;31.21;53.18;99865.66;125746;1099;105508;-75
2021/08/05 12:39:00;;;;;;;18.57;9.17;;;;;;;31.23;53.45;99863.75;126204;1099;104218;-76
2021/08/05 12:41:41;;;;;;;20.43;9.30;;;;;;;31.25;53.14;99861.80;126053;1099;104417;-77